Tuscumbia, Alabama
Current Conditions -  °F | °C
As of 9:53 PM on Thursday 20 Nov 2014 (Local Time) from KMSL Reporting Station
Overcast Overcast  
Wind Chill: 41°   Ceiling: 7500
Heat Index: 41°   Visibility: 10mi
Dew Point: 33°   Wind: 0mph
Humidity: 73%   Direction: NA
Pressure: 30.27"   Gusts: NA
Location:  34.73°N, 87.7°W
Report Text: KMSL 210353Z AUTO 00000KT 10SM OVC075 05/01 A3027 RMK AO2 SLP251 T00500006 $
Loading
Personal Weather Stations






























Interactive Weather Map New forecast layout! Learn more

10-Day Weather Forecast

Advertisements
Track Severe Weather on mobile